»·PEaware :: N49931 KVNY-L35

N49931 :: KVNY-L35

FLIGHT INFORMATION

Flight Status: Arrived
Operator: Privately registered:
United States
More flights under this callsign
Pilot: Sevag M. (33397)
Aircraft: CESSNA 152 AEROBAT
(C152)
More flights by this aircraft type
Origin: KVNY Van Nuys
United States
Destination: L35 Big Bear City
United States
More flights between these airports :: More routes between these airports
Route:
File this flight plan on PilotEdge
Remarks:
Altitude:
(Current/Filed)
11,500ft
Speed:
(Current/Filed)
100kts
Departed: 28-Jan-21 08:27 PM
Arrived: 28-Jan-21 09:22 PM
Distance/Time
Traveled:
82nm/0:55
Distance/Time
To Go:
Arrived

Flight Plot

Page will automatically refresh every two minutes.

Flight plan parsing failed; only flown route is shown


Map Options




Map Legend


Flown Route
Filed Route
Departure Airport
Arrival Airport
Navaid (VOR, NDB)
Fix

Horizontal Profiles

Position Reports

Time Latitude Longitude Heading Altitude Ground
Speed
28-Jan-21 20:13 34.203446 -118.491506 215 764ft 0kts
28-Jan-21 20:14 34.203446 -118.491506 215 764ft 0kts
28-Jan-21 20:15 34.203446 -118.491506 215 764ft 0kts
28-Jan-21 20:16 34.203446 -118.491506 215 764ft 0kts
28-Jan-21 20:17 34.203446 -118.491506 215 764ft 0kts
28-Jan-21 20:18 34.203446 -118.491506 215 764ft 0kts
28-Jan-21 20:19 34.203446 -118.491506 215 764ft 0kts
28-Jan-21 20:20 34.204509 -118.491059 356 769ft 3kts
28-Jan-21 20:21 34.208367 -118.491455 359 784ft 19kts
28-Jan-21 20:22 34.211394 -118.491713 354 787ft 16kts
28-Jan-21 20:23 34.214968 -118.492080 351 790ft 8kts
28-Jan-21 20:24 34.217247 -118.492285 357 799ft 14kts
28-Jan-21 20:26 34.218696 -118.492216 70 803ft 0kts
28-Jan-21 20:27 34.216560 -118.491000 175 796ft 60kts
28-Jan-21 20:28 34.195411 -118.488706 172 1523ft 68kts
28-Jan-21 20:29 34.175860 -118.482518 158 2278ft 75kts
28-Jan-21 20:30 34.154199 -118.472028 155 2632ft 96kts
28-Jan-21 20:31 34.128489 -118.457989 148 2432ft 104kts
28-Jan-21 20:32 34.112486 -118.431345 113 2452ft 98kts
28-Jan-21 20:33 34.102982 -118.400895 100 2482ft 97kts
28-Jan-21 20:34 34.102541 -118.369222 86 2560ft 98kts
28-Jan-21 20:35 34.104638 -118.336023 87 2534ft 100kts
28-Jan-21 20:36 34.107506 -118.302567 83 2471ft 100kts
28-Jan-21 20:37 34.110754 -118.269240 84 2467ft 100kts
28-Jan-21 20:38 34.113310 -118.235919 83 2467ft 99kts
28-Jan-21 20:39 34.117930 -118.202921 84 2487ft 100kts
28-Jan-21 20:40 34.121349 -118.169408 79 2699ft 99kts
28-Jan-21 20:40 34.126234 -118.143852 73 3149ft 91kts
28-Jan-21 20:42 34.133933 -118.108292 91 3681ft 92kts
28-Jan-21 20:43 34.135172 -118.078468 92 4260ft 88kts
28-Jan-21 20:43 34.136648 -118.055148 84 4798ft 82kts
28-Jan-21 20:44 34.140794 -118.027270 82 5373ft 85kts
28-Jan-21 20:46 34.149995 -117.994748 82 6027ft 85kts
28-Jan-21 20:46 34.152813 -117.971554 92 6551ft 82kts
28-Jan-21 20:47 34.159210 -117.943546 90 7257ft 85kts
28-Jan-21 20:48 34.164165 -117.914592 86 7951ft 92kts
28-Jan-21 20:49 34.171155 -117.885328 91 8683ft 90kts
28-Jan-21 20:50 34.176264 -117.855754 95 8871ft 88kts
28-Jan-21 20:51 34.181230 -117.825451 97 9347ft 94kts
28-Jan-21 20:52 34.184761 -117.791305 99 9520ft 107kts
28-Jan-21 20:53 34.187921 -117.756821 100 9519ft 97kts
28-Jan-21 20:54 34.194142 -117.727083 97 10107ft 89kts
28-Jan-21 20:55 34.199655 -117.697885 101 10437ft 91kts
28-Jan-21 20:56 34.203752 -117.669519 99 10721ft 86kts
28-Jan-21 20:57 34.208073 -117.639854 97 11176ft 99kts
28-Jan-21 20:58 34.216979 -117.604208 90 11786ft 124kts
28-Jan-21 20:59 34.227374 -117.559466 82 11487ft 151kts
28-Jan-21 21:00 34.238852 -117.514855 92 11518ft 121kts
28-Jan-21 21:01 34.243422 -117.476991 99 11421ft 111kts
28-Jan-21 21:02 34.247436 -117.440848 102 11482ft 103kts
28-Jan-21 21:03 34.249349 -117.403832 102 11664ft 120kts
28-Jan-21 21:04 34.249467 -117.364951 118 11806ft 112kts
28-Jan-21 21:05 34.243565 -117.328462 114 11872ft 116kts
28-Jan-21 21:06 34.249868 -117.289146 77 11431ft 127kts
28-Jan-21 21:07 34.261776 -117.250953 81 11157ft 118kts
28-Jan-21 21:08 34.267399 -117.216199 98 11347ft 99kts
28-Jan-21 21:09 34.268082 -117.182019 103 11580ft 106kts
28-Jan-21 21:10 34.272068 -117.144404 90 11519ft 116kts
28-Jan-21 21:11 34.275092 -117.106846 101 11476ft 109kts
28-Jan-21 21:12 34.276212 -117.069924 104 10919ft 107kts
28-Jan-21 21:13 34.275198 -117.034515 111 10383ft 102kts
28-Jan-21 21:14 34.267981 -117.001332 108 9716ft 102kts
28-Jan-21 21:15 34.262034 -116.968082 107 8997ft 101kts
28-Jan-21 21:16 34.254523 -116.936013 112 8442ft 98kts
28-Jan-21 21:17 34.245898 -116.905202 96 8033ft 96kts
28-Jan-21 21:18 34.250479 -116.873629 87 7864ft 90kts
28-Jan-21 21:19 34.253297 -116.844750 86 7623ft 75kts
28-Jan-21 21:20 34.263821 -116.846339 266 6788ft 67kts
28-Jan-21 21:21 34.264406 -116.854425 205 6753ft 0kts
28-Jan-21 21:28 34.263088 -116.846800 180 6753ft 0kts
28-Jan-21 21:29 34.263088 -116.846800 180 6753ft 0kts

Navigation Log

Ident Type
Flight plan parsing failed, navigation log unavailable